sensor_id;sensor_type;location;lat;lon;timestamp;temperature;humidity
12948;DHT22;6539;49.476;8.484;2023-04-01T00:01:45;11.60;99.90
12948;DHT22;6539;49.476;8.484;2023-04-01T00:04:13;11.50;99.90
12948;DHT22;6539;49.476;8.484;2023-04-01T00:06:40;11.50;99.90
12948;DHT22;6539;49.476;8.484;2023-04-01T00:09:11;11.50;99.90
12948;DHT22;6539;49.476;8.484;2023-04-01T00:11:40;11.60;99.90
12948;DHT22;6539;49.476;8.484;2023-04-01T00:14:06;11.70;99.90
12948;DHT22;6539;49.476;8.484;2023-04-01T00:16:35;11.60;99.90
12948;DHT22;6539;49.476;8.484;2023-04-01T00:19:03;11.60;99.90
12948;DHT22;6539;49.476;8.484;2023-04-01T00:21:29;11.70;99.90
12948;DHT22;6539;49.476;8.484;2023-04-01T00:23:55;11.60;99.90
12948;DHT22;6539;49.476;8.484;2023-04-01T00:26:21;11.70;99.90
12948;DHT22;6539;49.476;8.484;2023-04-01T00:28:47;11.60;99.90
12948;DHT22;6539;49.476;8.484;2023-04-01T00:31:18;11.60;99.90
12948;DHT22;6539;49.476;8.484;2023-04-01T00:33:49;11.60;99.90
12948;DHT22;6539;49.476;8.484;2023-04-01T00:36:19;11.60;99.90
12948;DHT22;6539;49.476;8.484;2023-04-01T00:38:47;11.70;99.90
12948;DHT22;6539;49.476;8.484;2023-04-01T00:41:16;11.60;99.90
12948;DHT22;6539;49.476;8.484;2023-04-01T00:43:48;11.60;99.90
12948;DHT22;6539;49.476;8.484;2023-04-01T00:46:19;11.70;99.90
12948;DHT22;6539;49.476;8.484;2023-04-01T00:48:51;11.70;99.90
12948;DHT22;6539;49.476;8.484;2023-04-01T00:51:24;12.60;99.90
12948;DHT22;6539;49.476;8.484;2023-04-01T00:53:56;11.70;99.90
12948;DHT22;6539;49.476;8.484;2023-04-01T00:56:38;11.80;99.90
12948;DHT22;6539;49.476;8.484;2023-04-01T00:59:14;11.60;99.90
12948;DHT22;6539;49.476;8.484;2023-04-01T01:01:46;11.80;99.90
12948;DHT22;6539;49.476;8.484;2023-04-01T01:07:36;11.60;99.90
12948;DHT22;6539;49.476;8.484;2023-04-01T01:10:13;11.70;99.90
12948;DHT22;6539;49.476;8.484;2023-04-01T01:18:19;11.80;99.90
12948;DHT22;6539;49.476;8.484;2023-04-01T01:21:30;11.70;99.90
12948;DHT22;6539;49.476;8.484;2023-04-01T01:27:18;11.60;99.90
12948;DHT22;6539;49.476;8.484;2023-04-01T01:38:10;11.80;99.90
12948;DHT22;6539;49.476;8.484;2023-04-01T01:40:43;11.90;99.90
12948;DHT22;6539;49.476;8.484;2023-04-01T01:43:22;11.80;99.90
12948;DHT22;6539;49.476;8.484;2023-04-01T01:45:58;11.80;99.90
12948;DHT22;6539;49.476;8.484;2023-04-01T01:48:31;11.70;99.90
12948;DHT22;6539;49.476;8.484;2023-04-01T01:51:00;11.80;99.90
12948;DHT22;6539;49.476;8.484;2023-04-01T01:53:30;11.80;99.90
12948;DHT22;6539;49.476;8.484;2023-04-01T01:55:56;11.80;99.90
12948;DHT22;6539;49.476;8.484;2023-04-01T01:58:28;11.80;99.90
12948;DHT22;6539;49.476;8.484;2023-04-01T02:00:59;11.80;99.90
12948;DHT22;6539;49.476;8.484;2023-04-01T02:03:34;11.80;99.90
12948;DHT22;6539;49.476;8.484;2023-04-01T02:06:05;11.90;99.90
12948;DHT22;6539;49.476;8.484;2023-04-01T02:11:40;11.80;99.90
12948;DHT22;6539;49.476;8.484;2023-04-01T02:14:14;11.80;99.90
12948;DHT22;6539;49.476;8.484;2023-04-01T02:16:54;11.90;99.90
12948;DHT22;6539;49.476;8.484;2023-04-01T02:19:27;11.90;99.90
12948;DHT22;6539;49.476;8.484;2023-04-01T02:22:03;11.90;99.90
12948;DHT22;6539;49.476;8.484;2023-04-01T02:24:33;12.00;99.90
12948;DHT22;6539;49.476;8.484;2023-04-01T02:27:06;11.90;99.90
12948;DHT22;6539;49.476;8.484;2023-04-01T02:29:32;11.90;99.90
12948;DHT22;6539;49.476;8.484;2023-04-01T02:31:58;11.90;99.90
12948;DHT22;6539;49.476;8.484;2023-04-01T02:34:27;11.90;99.90
12948;DHT22;6539;49.476;8.484;2023-04-01T02:36:55;12.00;99.90
12948;DHT22;6539;49.476;8.484;2023-04-01T02:39:22;12.00;99.90
12948;DHT22;6539;49.476;8.484;2023-04-01T02:41:51;11.80;99.90
12948;DHT22;6539;49.476;8.484;2023-04-01T02:44:18;11.90;99.90
12948;DHT22;6539;49.476;8.484;2023-04-01T02:46:43;11.80;99.90
12948;DHT22;6539;49.476;8.484;2023-04-01T02:49:14;11.80;99.90
12948;DHT22;6539;49.476;8.484;2023-04-01T02:51:42;11.70;99.90
12948;DHT22;6539;49.476;8.484;2023-04-01T02:54:08;11.80;99.90
12948;DHT22;6539;49.476;8.484;2023-04-01T02:56:34;11.80;99.90
12948;DHT22;6539;49.476;8.484;2023-04-01T02:58:59;11.70;99.90
12948;DHT22;6539;49.476;8.484;2023-04-01T03:01:25;11.80;99.90
12948;DHT22;6539;49.476;8.484;2023-04-01T03:03:53;11.70;99.90
12948;DHT22;6539;49.476;8.484;2023-04-01T03:06:19;11.60;99.90
12948;DHT22;6539;49.476;8.484;2023-04-01T03:08:45;11.60;99.90
12948;DHT22;6539;49.476;8.484;2023-04-01T03:11:11;11.50;99.90
12948;DHT22;6539;49.476;8.484;2023-04-01T03:13:37;11.60;99.90
12948;DHT22;6539;49.476;8.484;2023-04-01T03:16:06;11.60;99.90
12948;DHT22;6539;49.476;8.484;2023-04-01T03:18:34;11.60;99.90
12948;DHT22;6539;49.476;8.484;2023-04-01T03:21:22;11.60;99.90
12948;DHT22;6539;49.476;8.484;2023-04-01T03:23:49;11.50;99.90
12948;DHT22;6539;49.476;8.484;2023-04-01T03:26:18;11.60;99.90
12948;DHT22;6539;49.476;8.484;2023-04-01T03:28:46;11.20;99.90
12948;DHT22;6539;49.476;8.484;2023-04-01T03:31:17;11.50;99.90
12948;DHT22;6539;49.476;8.484;2023-04-01T03:36:09;11.50;99.90
12948;DHT22;6539;49.476;8.484;2023-04-01T03:38:38;11.50;99.90
12948;DHT22;6539;49.476;8.484;2023-04-01T03:41:14;11.50;99.90
12948;DHT22;6539;49.476;8.484;2023-04-01T03:43:41;11.50;99.90
12948;DHT22;6539;49.476;8.484;2023-04-01T03:46:07;11.40;99.90
12948;DHT22;6539;49.476;8.484;2023-04-01T03:48:33;11.40;99.90
12948;DHT22;6539;49.476;8.484;2023-04-01T03:50:59;11.50;99.90
12948;DHT22;6539;49.476;8.484;2023-04-01T03:53:25;11.40;99.90
12948;DHT22;6539;49.476;8.484;2023-04-01T03:55:55;11.40;99.90
12948;DHT22;6539;49.476;8.484;2023-04-01T03:58:21;11.50;99.90
12948;DHT22;6539;49.476;8.484;2023-04-01T04:00:49;11.40;99.90
12948;DHT22;6539;49.476;8.484;2023-04-01T04:03:15;11.40;99.90
12948;DHT22;6539;49.476;8.484;2023-04-01T04:05:48;11.60;99.90
12948;DHT22;6539;49.476;8.484;2023-04-01T04:08:16;11.40;99.90
12948;DHT22;6539;49.476;8.484;2023-04-01T04:10:44;11.40;99.90
12948;DHT22;6539;49.476;8.484;2023-04-01T04:13:11;11.40;99.90
12948;DHT22;6539;49.476;8.484;2023-04-01T04:15:38;11.40;99.90
12948;DHT22;6539;49.476;8.484;2023-04-01T04:18:06;11.40;99.90
12948;DHT22;6539;49.476;8.484;2023-04-01T04:20:32;11.40;99.90
12948;DHT22;6539;49.476;8.484;2023-04-01T04:22:57;11.50;99.90
12948;DHT22;6539;49.476;8.484;2023-04-01T04:25:25;11.70;99.90
12948;DHT22;6539;49.476;8.484;2023-04-01T04:27:53;11.50;99.90
12948;DHT22;6539;49.476;8.484;2023-04-01T04:30:19;11.50;99.90
12948;DHT22;6539;49.476;8.484;2023-04-01T04:32:47;11.50;99.90
12948;DHT22;6539;49.476;8.484;2023-04-01T04:35:13;11.20;99.90
12948;DHT22;6539;49.476;8.484;2023-04-01T04:37:38;11.50;99.90
12948;DHT22;6539;49.476;8.484;2023-04-01T04:40:07;11.50;99.90
12948;DHT22;6539;49.476;8.484;2023-04-01T04:42:33;11.40;99.90
12948;DHT22;6539;49.476;8.484;2023-04-01T04:45:01;11.50;99.90
12948;DHT22;6539;49.476;8.484;2023-04-01T04:47:32;11.60;99.90
12948;DHT22;6539;49.476;8.484;2023-04-01T04:49:57;11.50;99.90
12948;DHT22;6539;49.476;8.484;2023-04-01T04:52:25;11.40;99.90
12948;DHT22;6539;49.476;8.484;2023-04-01T04:54:51;11.40;99.90
12948;DHT22;6539;49.476;8.484;2023-04-01T04:57:19;11.40;99.90
12948;DHT22;6539;49.476;8.484;2023-04-01T04:59:45;11.30;99.90
12948;DHT22;6539;49.476;8.484;2023-04-01T05:02:11;11.30;99.90
12948;DHT22;6539;49.476;8.484;2023-04-01T05:04:39;11.30;99.90
12948;DHT22;6539;49.476;8.484;2023-04-01T05:07:05;11.20;99.90
12948;DHT22;6539;49.476;8.484;2023-04-01T05:09:35;11.20;99.90
12948;DHT22;6539;49.476;8.484;2023-04-01T05:12:06;11.30;99.90
12948;DHT22;6539;49.476;8.484;2023-04-01T05:14:34;11.30;99.90
12948;DHT22;6539;49.476;8.484;2023-04-01T05:17:09;11.30;99.90
12948;DHT22;6539;49.476;8.484;2023-04-01T05:19:39;11.30;99.90
12948;DHT22;6539;49.476;8.484;2023-04-01T05:22:06;11.20;99.90
12948;DHT22;6539;49.476;8.484;2023-04-01T05:24:32;11.20;99.90
12948;DHT22;6539;49.476;8.484;2023-04-01T05:26:59;11.20;99.90
12948;DHT22;6539;49.476;8.484;2023-04-01T05:29:27;11.10;99.90
12948;DHT22;6539;49.476;8.484;2023-04-01T05:31:53;11.10;99.90
12948;DHT22;6539;49.476;8.484;2023-04-01T05:34:18;11.10;99.90
12948;DHT22;6539;49.476;8.484;2023-04-01T05:36:46;11.20;99.90
12948;DHT22;6539;49.476;8.484;2023-04-01T05:39:15;11.30;99.90
12948;DHT22;6539;49.476;8.484;2023-04-01T05:41:41;11.20;99.90
12948;DHT22;6539;49.476;8.484;2023-04-01T05:44:11;11.30;99.90
12948;DHT22;6539;49.476;8.484;2023-04-01T05:46:38;11.20;99.90
12948;DHT22;6539;49.476;8.484;2023-04-01T05:49:03;11.20;99.90
12948;DHT22;6539;49.476;8.484;2023-04-01T05:51:32;11.50;99.90
12948;DHT22;6539;49.476;8.484;2023-04-01T05:53:58;11.40;99.90
12948;DHT22;6539;49.476;8.484;2023-04-01T05:56:27;11.20;99.90
12948;DHT22;6539;49.476;8.484;2023-04-01T05:58:54;11.20;99.90
12948;DHT22;6539;49.476;8.484;2023-04-01T06:01:20;11.30;99.90
12948;DHT22;6539;49.476;8.484;2023-04-01T06:03:46;11.30;99.90
12948;DHT22;6539;49.476;8.484;2023-04-01T06:06:14;11.30;99.90
12948;DHT22;6539;49.476;8.484;2023-04-01T06:08:47;11.40;99.90
12948;DHT22;6539;49.476;8.484;2023-04-01T06:11:40;11.40;99.90
12948;DHT22;6539;49.476;8.484;2023-04-01T06:17:17;11.40;99.90
12948;DHT22;6539;49.476;8.484;2023-04-01T06:23:34;11.20;99.90
12948;DHT22;6539;49.476;8.484;2023-04-01T06:45:55;11.30;99.90
12948;DHT22;6539;49.476;8.484;2023-04-01T06:51:21;11.30;99.90
12948;DHT22;6539;49.476;8.484;2023-04-01T06:54:17;11.30;99.90
12948;DHT22;6539;49.476;8.484;2023-04-01T06:56:51;11.30;99.90
12948;DHT22;6539;49.476;8.484;2023-04-01T06:59:30;11.20;99.90
12948;DHT22;6539;49.476;8.484;2023-04-01T07:02:19;11.30;99.90
12948;DHT22;6539;49.476;8.484;2023-04-01T07:04:58;11.30;99.90
12948;DHT22;6539;49.476;8.484;2023-04-01T07:07:41;11.20;99.90
12948;DHT22;6539;49.476;8.484;2023-04-01T07:10:25;11.30;99.90
12948;DHT22;6539;49.476;8.484;2023-04-01T07:12:56;11.40;99.90
12948;DHT22;6539;49.476;8.484;2023-04-01T07:15:33;11.30;99.90
12948;DHT22;6539;49.476;8.484;2023-04-01T07:18:19;11.40;99.90
12948;DHT22;6539;49.476;8.484;2023-04-01T07:20:52;11.40;99.90
12948;DHT22;6539;49.476;8.484;2023-04-01T07:23:26;11.30;99.90
12948;DHT22;6539;49.476;8.484;2023-04-01T07:26:15;11.30;99.90
12948;DHT22;6539;49.476;8.484;2023-04-01T07:28:46;11.30;99.90
12948;DHT22;6539;49.476;8.484;2023-04-01T07:34:28;11.30;99.90
12948;DHT22;6539;49.476;8.484;2023-04-01T07:37:15;11.20;99.90
12948;DHT22;6539;49.476;8.484;2023-04-01T07:40:07;11.30;99.90
12948;DHT22;6539;49.476;8.484;2023-04-01T07:45:38;11.30;99.90
12948;DHT22;6539;49.476;8.484;2023-04-01T07:48:43;11.20;99.90
12948;DHT22;6539;49.476;8.484;2023-04-01T07:56:55;11.70;99.90
12948;DHT22;6539;49.476;8.484;2023-04-01T08:03:38;11.20;99.90
12948;DHT22;6539;49.476;8.484;2023-04-01T08:05:46;11.30;99.90
12948;DHT22;6539;49.476;8.484;2023-04-01T08:16:20;11.40;99.90
12948;DHT22;6539;49.476;8.484;2023-04-01T08:21:52;11.40;99.90
12948;DHT22;6539;49.476;8.484;2023-04-01T08:24:42;11.40;99.90
12948;DHT22;6539;49.476;8.484;2023-04-01T08:30:38;11.30;99.90
12948;DHT22;6539;49.476;8.484;2023-04-01T08:33:19;11.30;99.90
12948;DHT22;6539;49.476;8.484;2023-04-01T08:36:17;11.30;99.90
12948;DHT22;6539;49.476;8.484;2023-04-01T08:38:59;11.30;99.90
12948;DHT22;6539;49.476;8.484;2023-04-01T08:44:46;11.40;99.90
12948;DHT22;6539;49.476;8.484;2023-04-01T08:59:35;11.40;99.90
12948;DHT22;6539;49.476;8.484;2023-04-01T09:14:37;11.50;99.90
12948;DHT22;6539;49.476;8.484;2023-04-01T09:29:54;12.10;99.90
12948;DHT22;6539;49.476;8.484;2023-04-01T09:50:14;11.60;99.90
12948;DHT22;6539;49.476;8.484;2023-04-01T10:01:52;11.70;99.90
12948;DHT22;6539;49.476;8.484;2023-04-01T10:07:40;11.80;99.90
12948;DHT22;6539;49.476;8.484;2023-04-01T11:07:15;12.40;99.90
12948;DHT22;6539;49.476;8.484;2023-04-01T11:13:26;12.50;99.90
12948;DHT22;6539;49.476;8.484;2023-04-01T11:21:56;12.50;99.90
12948;DHT22;6539;49.476;8.484;2023-04-01T11:36:42;12.50;99.90
12948;DHT22;6539;49.476;8.484;2023-04-01T11:48:32;12.80;99.90
12948;DHT22;6539;49.476;8.484;2023-04-01T11:54:43;12.70;99.90
12948;DHT22;6539;49.476;8.484;2023-04-01T12:09:12;13.00;99.90
12948;DHT22;6539;49.476;8.484;2023-04-01T12:12:37;13.00;99.90
12948;DHT22;6539;49.476;8.484;2023-04-01T12:26:55;13.00;99.90
12948;DHT22;6539;49.476;8.484;2023-04-01T12:29:58;13.10;99.90
12948;DHT22;6539;49.476;8.484;2023-04-01T12:41:45;13.00;99.90
12948;DHT22;6539;49.476;8.484;2023-04-01T12:50:34;13.10;99.90
12948;DHT22;6539;49.476;8.484;2023-04-01T12:56:16;13.10;99.90
12948;DHT22;6539;49.476;8.484;2023-04-01T12:59:23;13.20;99.90
12948;DHT22;6539;49.476;8.484;2023-04-01T13:08:41;13.30;99.90
12948;DHT22;6539;49.476;8.484;2023-04-01T13:21:21;13.40;99.90
12948;DHT22;6539;49.476;8.484;2023-04-01T13:24:09;13.40;99.90
12948;DHT22;6539;49.476;8.484;2023-04-01T13:44:40;13.40;99.90
12948;DHT22;6539;49.476;8.484;2023-04-01T14:00:32;13.30;99.90
12948;DHT22;6539;49.476;8.484;2023-04-01T14:20:48;13.40;99.90
12948;DHT22;6539;49.476;8.484;2023-04-01T14:38:20;13.10;99.90
12948;DHT22;6539;49.476;8.484;2023-04-01T14:41:00;13.30;99.90
12948;DHT22;6539;49.476;8.484;2023-04-01T14:47:03;13.10;99.90
12948;DHT22;6539;49.476;8.484;2023-04-01T14:49:47;13.10;99.90
12948;DHT22;6539;49.476;8.484;2023-04-01T14:54:57;13.20;99.90
12948;DHT22;6539;49.476;8.484;2023-04-01T14:57:27;13.10;99.90
12948;DHT22;6539;49.476;8.484;2023-04-01T15:00:14;13.10;99.90
12948;DHT22;6539;49.476;8.484;2023-04-01T15:23:23;13.10;99.90
12948;DHT22;6539;49.476;8.484;2023-04-01T15:26:54;12.90;99.90
12948;DHT22;6539;49.476;8.484;2023-04-01T15:32:27;13.30;99.90
12948;DHT22;6539;49.476;8.484;2023-04-01T15:38:36;13.20;99.90
12948;DHT22;6539;49.476;8.484;2023-04-01T15:45:03;13.20;99.90
12948;DHT22;6539;49.476;8.484;2023-04-01T15:47:46;13.30;99.90
12948;DHT22;6539;49.476;8.484;2023-04-01T15:56:48;13.10;99.90
12948;DHT22;6539;49.476;8.484;2023-04-01T16:06:02;13.20;99.90
12948;DHT22;6539;49.476;8.484;2023-04-01T16:11:37;13.30;99.90
12948;DHT22;6539;49.476;8.484;2023-04-01T16:14:25;13.20;99.90
12948;DHT22;6539;49.476;8.484;2023-04-01T16:20:20;13.10;99.90
12948;DHT22;6539;49.476;8.484;2023-04-01T16:32:34;13.50;99.90
12948;DHT22;6539;49.476;8.484;2023-04-01T16:35:31;14.00;99.90
12948;DHT22;6539;49.476;8.484;2023-04-01T16:49:46;14.60;99.90
12948;DHT22;6539;49.476;8.484;2023-04-01T16:55:20;13.80;99.90
12948;DHT22;6539;49.476;8.484;2023-04-01T16:57:56;13.70;99.90
12948;DHT22;6539;49.476;8.484;2023-04-01T17:00:55;13.80;99.90
12948;DHT22;6539;49.476;8.484;2023-04-01T17:03:36;13.50;99.90
12948;DHT22;6539;49.476;8.484;2023-04-01T17:12:34;13.20;99.90
12948;DHT22;6539;49.476;8.484;2023-04-01T17:21:21;13.20;99.90
12948;DHT22;6539;49.476;8.484;2023-04-01T17:24:24;13.30;99.90
12948;DHT22;6539;49.476;8.484;2023-04-01T17:30:21;13.20;99.90
12948;DHT22;6539;49.476;8.484;2023-04-01T17:42:09;13.10;99.90
12948;DHT22;6539;49.476;8.484;2023-04-01T18:08:22;12.80;99.90
12948;DHT22;6539;49.476;8.484;2023-04-01T18:28:19;12.70;99.90
12948;DHT22;6539;49.476;8.484;2023-04-01T18:30:54;12.80;99.90
12948;DHT22;6539;49.476;8.484;2023-04-01T18:33:34;12.80;99.90
12948;DHT22;6539;49.476;8.484;2023-04-01T18:36:37;12.60;99.90
12948;DHT22;6539;49.476;8.484;2023-04-01T18:39:16;12.70;99.90
12948;DHT22;6539;49.476;8.484;2023-04-01T18:44:59;12.60;99.90
12948;DHT22;6539;49.476;8.484;2023-04-01T18:47:43;12.50;99.90
12948;DHT22;6539;49.476;8.484;2023-04-01T18:53:24;12.60;99.90
12948;DHT22;6539;49.476;8.484;2023-04-01T18:56:37;12.40;99.90
12948;DHT22;6539;49.476;8.484;2023-04-01T19:05:04;12.50;99.90
12948;DHT22;6539;49.476;8.484;2023-04-01T19:07:49;12.50;99.90
12948;DHT22;6539;49.476;8.484;2023-04-01T19:10:40;12.40;99.90
12948;DHT22;6539;49.476;8.484;2023-04-01T19:34:18;12.30;99.90
12948;DHT22;6539;49.476;8.484;2023-04-01T19:37:58;12.30;99.90
12948;DHT22;6539;49.476;8.484;2023-04-01T19:46:14;12.40;99.90
12948;DHT22;6539;49.476;8.484;2023-04-01T19:48:51;12.40;99.90
12948;DHT22;6539;49.476;8.484;2023-04-01T19:51:59;12.40;99.90
12948;DHT22;6539;49.476;8.484;2023-04-01T20:07:00;12.50;99.90
12948;DHT22;6539;49.476;8.484;2023-04-01T20:12:53;12.30;99.90
12948;DHT22;6539;49.476;8.484;2023-04-01T20:16:02;12.30;99.90
12948;DHT22;6539;49.476;8.484;2023-04-01T20:18:37;12.30;99.90
12948;DHT22;6539;49.476;8.484;2023-04-01T20:21:45;12.30;99.90
12948;DHT22;6539;49.476;8.484;2023-04-01T20:24:37;12.30;99.90
12948;DHT22;6539;49.476;8.484;2023-04-01T20:27:21;12.30;99.90
12948;DHT22;6539;49.476;8.484;2023-04-01T20:36:05;12.20;99.90
12948;DHT22;6539;49.476;8.484;2023-04-01T20:41:43;12.20;99.90
12948;DHT22;6539;49.476;8.484;2023-04-01T20:53:43;12.00;99.90
12948;DHT22;6539;49.476;8.484;2023-04-01T21:10:14;11.90;99.90
12948;DHT22;6539;49.476;8.484;2023-04-01T21:12:48;11.90;99.90
12948;DHT22;6539;49.476;8.484;2023-04-01T21:20:56;11.70;99.90
12948;DHT22;6539;49.476;8.484;2023-04-01T21:23:56;11.90;99.90
12948;DHT22;6539;49.476;8.484;2023-04-01T21:26:52;11.90;99.90
12948;DHT22;6539;49.476;8.484;2023-04-01T21:43:30;11.80;99.90
12948;DHT22;6539;49.476;8.484;2023-04-01T21:49:24;11.80;99.90
12948;DHT22;6539;49.476;8.484;2023-04-01T21:52:30;11.70;99.90
12948;DHT22;6539;49.476;8.484;2023-04-01T22:04:31;11.70;99.90
12948;DHT22;6539;49.476;8.484;2023-04-01T22:07:37;11.80;99.90
12948;DHT22;6539;49.476;8.484;2023-04-01T22:12:48;11.80;99.90
12948;DHT22;6539;49.476;8.484;2023-04-01T22:15:44;11.80;99.90
12948;DHT22;6539;49.476;8.484;2023-04-01T22:18:31;11.70;99.90
12948;DHT22;6539;49.476;8.484;2023-04-01T22:26:53;11.70;99.90
12948;DHT22;6539;49.476;8.484;2023-04-01T22:29:38;11.60;99.90
12948;DHT22;6539;49.476;8.484;2023-04-01T22:32:25;11.80;99.90
12948;DHT22;6539;49.476;8.484;2023-04-01T22:43:38;11.80;99.90
12948;DHT22;6539;49.476;8.484;2023-04-01T22:49:12;11.80;99.90
12948;DHT22;6539;49.476;8.484;2023-04-01T22:52:01;11.60;99.90
12948;DHT22;6539;49.476;8.484;2023-04-01T22:54:38;11.70;99.90
12948;DHT22;6539;49.476;8.484;2023-04-01T22:59:58;11.80;99.90
12948;DHT22;6539;49.476;8.484;2023-04-01T23:05:53;11.80;99.90
12948;DHT22;6539;49.476;8.484;2023-04-01T23:17:06;11.80;99.90
12948;DHT22;6539;49.476;8.484;2023-04-01T23:26:09;11.90;99.90
12948;DHT22;6539;49.476;8.484;2023-04-01T23:28:43;11.80;99.90
12948;DHT22;6539;49.476;8.484;2023-04-01T23:33:57;11.70;99.90
12948;DHT22;6539;49.476;8.484;2023-04-01T23:36:52;11.70;99.90
12948;DHT22;6539;49.476;8.484;2023-04-01T23:39:28;11.70;99.90
12948;DHT22;6539;49.476;8.484;2023-04-01T23:42:04;11.70;99.90
12948;DHT22;6539;49.476;8.484;2023-04-01T23:44:41;11.60;99.90
12948;DHT22;6539;49.476;8.484;2023-04-01T23:47:14;11.50;99.90
12948;DHT22;6539;49.476;8.484;2023-04-01T23:49:58;11.60;99.90
12948;DHT22;6539;49.476;8.484;2023-04-01T23:52:30;11.50;99.90
12948;DHT22;6539;49.476;8.484;2023-04-01T23:55:19;11.50;99.90
12948;DHT22;6539;49.476;8.484;2023-04-01T23:58:15;11.50;99.90
